Time;durP1;ratioP1;P1;durP2;ratioP2;P2;SDS_P1;SDS_P2;PMS_P1;PMS_P2;Temp;Humidity;BMP_temperature;BMP_pressure;BME280_temperature;BME280_humidity;BME280_pressure;Samples;Min_cycle;Max_cycle;Signal;HPM_P1;HPM_P2
2023/12/18 00:01:49;;;;;;;29.30;18.10;;;;;;;;;;106970;1253;60744;-80
2023/12/18 00:04:16;;;;;;;35.00;17.40;;;;;;;;;;106961;1254;60900;-80
2023/12/18 00:06:42;;;;;;;17.70;11.50;;;;;;;;;;106987;1253;59803;-80
2023/12/18 00:09:09;;;;;;;22.70;12.60;;;;;;;;;;106910;1253;60304;-80
2023/12/18 00:11:35;;;;;;;36.10;17.00;;;;;;;;;;106928;1255;59286;-80
2023/12/18 00:14:02;;;;;;;31.90;16.60;;;;;;;;;;106965;1254;59781;-80
2023/12/18 00:16:28;;;;;;;39.50;19.90;;;;;;;;;;106941;1252;60580;-80
2023/12/18 00:18:55;;;;;;;27.70;16.20;;;;;;;;;;106778;1253;60932;-79
2023/12/18 00:21:22;;;;;;;29.00;17.10;;;;;;;;;;106858;1253;59755;-80
2023/12/18 00:23:48;;;;;;;35.70;18.30;;;;;;;;;;107086;1251;61717;-81
2023/12/18 00:26:15;;;;;;;33.60;18.50;;;;;;;;;;106988;1251;61031;-80
2023/12/18 00:28:41;;;;;;;20.30;13.50;;;;;;;;;;106995;1251;60974;-79
2023/12/18 00:31:07;;;;;;;32.00;15.40;;;;;;;;;;107019;1251;59825;-80
2023/12/18 00:33:34;;;;;;;40.90;22.20;;;;;;;;;;107057;1251;59520;-80
2023/12/18 00:36:00;;;;;;;26.30;13.40;;;;;;;;;;107022;1254;59888;-80
2023/12/18 00:38:27;;;;;;;43.60;22.60;;;;;;;;;;107051;1251;59767;-80
2023/12/18 00:40:53;;;;;;;36.70;19.40;;;;;;;;;;106956;1251;59861;-80
2023/12/18 00:43:20;;;;;;;36.80;18.70;;;;;;;;;;107007;1251;59774;-80
2023/12/18 00:45:46;;;;;;;22.90;12.70;;;;;;;;;;107041;1254;60827;-80
2023/12/18 00:48:13;;;;;;;31.90;16.60;;;;;;;;;;107007;1251;59841;-81
2023/12/18 00:50:39;;;;;;;30.60;18.30;;;;;;;;;;107045;1251;59815;-80
2023/12/18 00:53:06;;;;;;;35.80;18.20;;;;;;;;;;107482;1251;60667;-80
2023/12/18 00:55:32;;;;;;;27.40;15.60;;;;;;;;;;107017;1251;60907;-80
2023/12/18 00:57:58;;;;;;;19.40;10.40;;;;;;;;;;107034;1251;60805;-80
2023/12/18 01:00:25;;;;;;;33.40;15.80;;;;;;;;;;106956;1253;59934;-80
2023/12/18 01:02:52;;;;;;;29.70;15.40;;;;;;;;;;106942;1251;59693;-80
2023/12/18 01:05:18;;;;;;;32.20;17.30;;;;;;;;;;106973;1251;60727;-80
2023/12/18 01:07:45;;;;;;;24.70;15.20;;;;;;;;;;106832;1252;59890;-80
2023/12/18 01:10:11;;;;;;;39.80;17.70;;;;;;;;;;107014;1251;59738;-80
2023/12/18 01:12:38;;;;;;;27.60;11.80;;;;;;;;;;106965;1253;60812;-80
2023/12/18 01:15:04;;;;;;;25.30;13.20;;;;;;;;;;107974;1251;59836;-80
2023/12/18 01:17:31;;;;;;;29.00;14.90;;;;;;;;;;106922;1251;60565;-80
2023/12/18 01:19:57;;;;;;;30.00;19.00;;;;;;;;;;106903;1255;60882;-80
2023/12/18 01:22:24;;;;;;;20.40;10.40;;;;;;;;;;107164;1251;60600;-79
2023/12/18 01:24:50;;;;;;;29.20;16.20;;;;;;;;;;109127;1250;59031;-80
2023/12/18 01:27:17;;;;;;;32.00;18.80;;;;;;;;;;109576;1250;59161;-80
2023/12/18 01:29:43;;;;;;;34.00;16.70;;;;;;;;;;109549;1251;58982;-80
2023/12/18 01:32:10;;;;;;;37.80;18.00;;;;;;;;;;109544;1253;59007;-81
2023/12/18 01:34:37;;;;;;;25.50;14.70;;;;;;;;;;108017;1254;60814;-80
2023/12/18 01:37:05;;;;;;;33.80;19.30;;;;;;;;;;107035;1251;62019;-80
2023/12/18 01:39:32;;;;;;;35.40;20.50;;;;;;;;;;108778;1251;58984;-80
2023/12/18 01:41:58;;;;;;;40.80;21.20;;;;;;;;;;109543;1250;59598;-80
2023/12/18 01:44:25;;;;;;;34.10;19.30;;;;;;;;;;107650;1251;59867;-80
2023/12/18 01:46:51;;;;;;;34.20;17.20;;;;;;;;;;108983;1251;58914;-80
2023/12/18 01:49:18;;;;;;;44.80;21.30;;;;;;;;;;106989;1251;59898;-80
2023/12/18 01:51:44;;;;;;;29.90;18.20;;;;;;;;;;107037;1251;60773;-80
2023/12/18 01:54:11;;;;;;;32.20;16.80;;;;;;;;;;106941;1251;60901;-80
2023/12/18 01:56:37;;;;;;;30.10;17.70;;;;;;;;;;107033;1251;59784;-80
2023/12/18 01:59:04;;;;;;;24.70;11.30;;;;;;;;;;106950;1251;59781;-80
2023/12/18 02:01:30;;;;;;;27.10;15.80;;;;;;;;;;106850;1253;59529;-80
2023/12/18 02:03:57;;;;;;;30.60;18.90;;;;;;;;;;107559;1253;59686;-80
2023/12/18 02:06:24;;;;;;;32.20;12.20;;;;;;;;;;106999;1253;59841;-80
2023/12/18 02:08:50;;;;;;;24.10;13.00;;;;;;;;;;106959;1253;59221;-80
2023/12/18 02:11:17;;;;;;;22.90;10.10;;;;;;;;;;106929;1253;59887;-79
2023/12/18 02:13:43;;;;;;;20.30;10.80;;;;;;;;;;107129;1251;59181;-83
2023/12/18 02:16:10;;;;;;;36.30;21.10;;;;;;;;;;106859;1251;59883;-80
2023/12/18 02:18:44;;;;;;;33.90;17.40;;;;;;;;;;106779;1253;60486;-80
2023/12/18 02:21:11;;;;;;;30.20;16.80;;;;;;;;;;106829;1253;60916;-80
2023/12/18 02:23:38;;;;;;;35.70;15.60;;;;;;;;;;106955;1251;59819;-80
2023/12/18 02:26:04;;;;;;;35.50;22.40;;;;;;;;;;106889;1253;62152;-80
2023/12/18 02:28:30;;;;;;;29.20;17.60;;;;;;;;;;107649;1251;61347;-80
2023/12/18 02:30:57;;;;;;;28.80;17.90;;;;;;;;;;108735;1251;59867;-80
2023/12/18 02:33:23;;;;;;;26.20;14.60;;;;;;;;;;107074;1251;59841;-80
2023/12/18 02:35:50;;;;;;;22.80;11.50;;;;;;;;;;106978;1251;60868;-80
2023/12/18 02:38:16;;;;;;;24.80;16.20;;;;;;;;;;107025;1251;60594;-80
2023/12/18 02:40:43;;;;;;;24.50;15.20;;;;;;;;;;106998;1251;59853;-80
2023/12/18 02:43:10;;;;;;;28.50;15.10;;;;;;;;;;106965;1251;60910;-80
2023/12/18 02:45:37;;;;;;;28.90;14.10;;;;;;;;;;106972;1250;59781;-80
2023/12/18 02:48:04;;;;;;;47.50;20.90;;;;;;;;;;107071;1251;59848;-80
2023/12/18 02:50:31;;;;;;;39.60;21.10;;;;;;;;;;107022;1251;62040;-79
2023/12/18 02:52:57;;;;;;;44.90;23.60;;;;;;;;;;107005;1251;62118;-80
2023/12/18 02:55:24;;;;;;;24.80;15.50;;;;;;;;;;106963;1252;60760;-80
2023/12/18 02:57:50;;;;;;;33.50;16.00;;;;;;;;;;106963;1251;59668;-80
2023/12/18 03:00:17;;;;;;;27.10;14.90;;;;;;;;;;106966;1251;61997;-80
2023/12/18 03:02:44;;;;;;;28.60;15.10;;;;;;;;;;106982;1251;60852;-80
2023/12/18 03:05:11;;;;;;;27.60;14.80;;;;;;;;;;107016;1256;60776;-80
2023/12/18 03:07:38;;;;;;;34.10;20.60;;;;;;;;;;107043;1250;59720;-80
2023/12/18 03:10:04;;;;;;;24.10;13.50;;;;;;;;;;106981;1251;60784;-80
2023/12/18 03:12:31;;;;;;;21.30;11.90;;;;;;;;;;107040;1251;59727;-80
2023/12/18 03:14:57;;;;;;;30.10;17.60;;;;;;;;;;107050;1250;60808;-81
2023/12/18 03:17:24;;;;;;;20.30;11.40;;;;;;;;;;107083;1251;59895;-79
2023/12/18 03:19:50;;;;;;;16.70;10.80;;;;;;;;;;107059;1254;59154;-80
2023/12/18 03:22:17;;;;;;;27.90;13.40;;;;;;;;;;107051;1251;59884;-80
2023/12/18 03:24:43;;;;;;;19.50;11.00;;;;;;;;;;106997;1251;60783;-80
2023/12/18 03:27:10;;;;;;;26.30;15.00;;;;;;;;;;107024;1251;59809;-80
2023/12/18 03:29:36;;;;;;;24.10;14.30;;;;;;;;;;107078;1251;60837;-80
2023/12/18 03:32:03;;;;;;;23.80;14.00;;;;;;;;;;107048;1251;59935;-80
2023/12/18 03:34:31;;;;;;;27.50;15.10;;;;;;;;;;109269;1251;59815;-79
2023/12/18 03:36:57;;;;;;;22.00;13.40;;;;;;;;;;107038;1251;59785;-80
2023/12/18 03:39:24;;;;;;;22.60;16.40;;;;;;;;;;106975;1251;60985;-79
2023/12/18 03:41:50;;;;;;;33.50;17.60;;;;;;;;;;106959;1251;60932;-80
2023/12/18 03:44:17;;;;;;;48.60;23.60;;;;;;;;;;107030;1251;60723;-80
2023/12/18 03:46:43;;;;;;;60.40;26.30;;;;;;;;;;107553;1251;59813;-80
2023/12/18 03:49:09;;;;;;;32.70;15.70;;;;;;;;;;107047;1251;59829;-79
2023/12/18 03:51:36;;;;;;;33.10;17.80;;;;;;;;;;107113;1251;59556;-80
2023/12/18 03:54:03;;;;;;;28.60;16.50;;;;;;;;;;107067;1251;60806;-80
2023/12/18 03:56:29;;;;;;;28.60;16.20;;;;;;;;;;107152;1251;60892;-80
2023/12/18 03:58:56;;;;;;;27.90;16.50;;;;;;;;;;107169;1251;59565;-80
2023/12/18 04:01:22;;;;;;;25.80;15.00;;;;;;;;;;107878;1251;59923;-79
2023/12/18 04:03:49;;;;;;;24.40;14.90;;;;;;;;;;107899;1251;59802;-80
2023/12/18 04:06:15;;;;;;;31.80;18.90;;;;;;;;;;108098;1251;60246;-80
2023/12/18 04:08:42;;;;;;;23.70;13.70;;;;;;;;;;108334;1252;59875;-80
2023/12/18 04:11:15;;;;;;;22.80;12.40;;;;;;;;;;109151;1251;59943;-80
2023/12/18 04:13:44;;;;;;;23.70;12.30;;;;;;;;;;107878;1255;59721;-80
2023/12/18 04:16:11;;;;;;;37.30;22.10;;;;;;;;;;107766;1252;63073;-80
2023/12/18 04:18:37;;;;;;;24.50;14.70;;;;;;;;;;108227;1251;59795;-80
2023/12/18 04:21:04;;;;;;;25.50;13.20;;;;;;;;;;107720;1252;60497;-80
2023/12/18 04:23:30;;;;;;;21.40;13.90;;;;;;;;;;107153;1251;59740;-80
2023/12/18 04:25:57;;;;;;;21.90;12.60;;;;;;;;;;107107;1251;59761;-80
2023/12/18 04:28:23;;;;;;;23.90;16.80;;;;;;;;;;107075;1251;59732;-80
2023/12/18 04:30:50;;;;;;;27.40;16.70;;;;;;;;;;107052;1251;59734;-80
2023/12/18 04:33:16;;;;;;;23.80;12.80;;;;;;;;;;107060;1251;59687;-80
2023/12/18 04:35:43;;;;;;;23.10;10.60;;;;;;;;;;107047;1251;59818;-80
2023/12/18 04:38:10;;;;;;;25.20;13.30;;;;;;;;;;107027;1250;59555;-81
2023/12/18 04:40:36;;;;;;;22.50;14.80;;;;;;;;;;108115;1251;62071;-80
2023/12/18 04:43:03;;;;;;;26.10;15.60;;;;;;;;;;109596;1250;58893;-80
2023/12/18 04:45:29;;;;;;;20.20;13.00;;;;;;;;;;109599;1250;59784;-80
2023/12/18 04:47:56;;;;;;;27.40;13.80;;;;;;;;;;107591;1251;59180;-80
2023/12/18 04:50:22;;;;;;;19.30;10.40;;;;;;;;;;106884;1251;60861;-80
2023/12/18 04:52:49;;;;;;;27.90;17.00;;;;;;;;;;107074;1251;60683;-80
2023/12/18 04:55:15;;;;;;;18.20;9.80;;;;;;;;;;107091;1251;59835;-80
2023/12/18 04:57:42;;;;;;;18.70;9.60;;;;;;;;;;107056;1251;60668;-81
2023/12/18 05:00:09;;;;;;;23.40;11.60;;;;;;;;;;106943;1251;59804;-80
2023/12/18 05:02:36;;;;;;;26.10;14.90;;;;;;;;;;106987;1251;59835;-80
2023/12/18 05:05:03;;;;;;;18.50;11.40;;;;;;;;;;107020;1251;62611;-80
2023/12/18 05:07:29;;;;;;;21.80;12.00;;;;;;;;;;106961;1251;59584;-79
2023/12/18 05:09:56;;;;;;;19.60;11.70;;;;;;;;;;106964;1251;60931;-80
2023/12/18 05:12:22;;;;;;;22.20;12.40;;;;;;;;;;106954;1251;59836;-79
2023/12/18 05:14:49;;;;;;;26.40;15.80;;;;;;;;;;107019;1251;59741;-80
2023/12/18 05:17:15;;;;;;;24.60;14.90;;;;;;;;;;107005;1251;59849;-80
2023/12/18 05:19:42;;;;;;;25.90;14.70;;;;;;;;;;106990;1251;60998;-80
2023/12/18 05:22:08;;;;;;;25.20;15.20;;;;;;;;;;107060;1251;59920;-80
2023/12/18 05:24:35;;;;;;;28.40;16.00;;;;;;;;;;107068;1251;59679;-80
2023/12/18 05:27:01;;;;;;;46.00;27.30;;;;;;;;;;106995;1251;61341;-80
2023/12/18 05:29:28;;;;;;;44.10;24.80;;;;;;;;;;107087;1251;62557;-79
2023/12/18 05:31:54;;;;;;;50.70;29.70;;;;;;;;;;107049;1251;59887;-79
2023/12/18 05:34:21;;;;;;;43.90;23.30;;;;;;;;;;107031;1250;60222;-80
2023/12/18 05:36:47;;;;;;;43.30;22.60;;;;;;;;;;107045;1251;59422;-80
2023/12/18 05:39:14;;;;;;;47.20;22.40;;;;;;;;;;107056;1251;60666;-80
2023/12/18 05:41:40;;;;;;;49.40;29.20;;;;;;;;;;107025;1255;61538;-80
2023/12/18 05:44:07;;;;;;;38.00;19.90;;;;;;;;;;107538;1251;59775;-81
2023/12/18 05:46:33;;;;;;;40.10;21.00;;;;;;;;;;107600;1250;59760;-81
2023/12/18 05:49:00;;;;;;;35.90;19.40;;;;;;;;;;107483;1251;60874;-80
2023/12/18 05:51:26;;;;;;;23.70;14.10;;;;;;;;;;107586;1254;61264;-81
2023/12/18 05:53:53;;;;;;;30.80;16.20;;;;;;;;;;107533;1251;60932;-81
2023/12/18 05:56:19;;;;;;;30.10;15.50;;;;;;;;;;107022;1251;61514;-80
2023/12/18 05:58:46;;;;;;;24.30;15.00;;;;;;;;;;106961;1251;59882;-80
2023/12/18 06:01:12;;;;;;;27.50;15.00;;;;;;;;;;107002;1251;60882;-80
2023/12/18 06:03:39;;;;;;;22.70;12.90;;;;;;;;;;108237;1251;59251;-80
2023/12/18 06:06:06;;;;;;;22.70;14.20;;;;;;;;;;107979;1253;59791;-80
2023/12/18 06:08:33;;;;;;;24.50;15.00;;;;;;;;;;107194;1251;59172;-80
2023/12/18 06:11:00;;;;;;;28.50;15.10;;;;;;;;;;107060;1251;60579;-79
2023/12/18 06:13:26;;;;;;;32.90;18.30;;;;;;;;;;108147;1251;59844;-80
2023/12/18 06:15:52;;;;;;;34.70;20.30;;;;;;;;;;109631;1249;59073;-80
2023/12/18 06:18:19;;;;;;;31.50;18.40;;;;;;;;;;109581;1251;58940;-80
2023/12/18 06:20:45;;;;;;;29.60;17.20;;;;;;;;;;109591;1251;58825;-80
2023/12/18 06:23:12;;;;;;;32.50;16.90;;;;;;;;;;109257;1251;60818;-80
2023/12/18 06:25:39;;;;;;;32.90;16.40;;;;;;;;;;107439;1251;59896;-80
2023/12/18 06:28:05;;;;;;;34.50;19.30;;;;;;;;;;109567;1251;58852;-80
2023/12/18 06:30:32;;;;;;;30.50;15.40;;;;;;;;;;109519;1251;63049;-80
2023/12/18 06:32:58;;;;;;;27.00;16.10;;;;;;;;;;109479;1252;117076;-80
2023/12/18 06:35:25;;;;;;;21.10;11.50;;;;;;;;;;109565;1251;58944;-80
2023/12/18 06:37:51;;;;;;;18.90;11.50;;;;;;;;;;109565;1251;58900;-80
2023/12/18 06:40:18;;;;;;;16.20;9.10;;;;;;;;;;109570;1251;59087;-80
2023/12/18 06:42:44;;;;;;;24.40;13.70;;;;;;;;;;109579;1251;59339;-79
2023/12/18 06:45:11;;;;;;;30.00;15.80;;;;;;;;;;109549;1251;58960;-80
2023/12/18 06:47:37;;;;;;;26.50;11.90;;;;;;;;;;109559;1251;58972;-80
2023/12/18 06:50:04;;;;;;;19.60;10.50;;;;;;;;;;109519;1250;59052;-80
2023/12/18 06:52:30;;;;;;;19.50;12.60;;;;;;;;;;109695;1250;58796;-80
2023/12/18 06:54:57;;;;;;;25.10;15.80;;;;;;;;;;108798;1250;59522;-80
2023/12/18 06:57:23;;;;;;;28.50;18.20;;;;;;;;;;107097;1251;59817;-80
2023/12/18 06:59:50;;;;;;;33.90;20.20;;;;;;;;;;107237;1253;62116;-81
2023/12/18 07:02:16;;;;;;;30.30;19.50;;;;;;;;;;107144;1254;60771;-80
2023/12/18 07:04:43;;;;;;;32.50;19.40;;;;;;;;;;107378;1251;60867;-81
2023/12/18 07:07:09;;;;;;;27.40;16.60;;;;;;;;;;108886;1251;60608;-80
2023/12/18 07:09:36;;;;;;;33.70;20.20;;;;;;;;;;109542;1251;59068;-80
2023/12/18 07:12:02;;;;;;;44.20;22.30;;;;;;;;;;109540;1253;58971;-80
2023/12/18 07:14:29;;;;;;;40.30;24.10;;;;;;;;;;107382;1254;61487;-80
2023/12/18 07:16:55;;;;;;;43.60;25.70;;;;;;;;;;106790;1254;59829;-79
2023/12/18 07:19:22;;;;;;;43.10;25.60;;;;;;;;;;106971;1250;59944;-80
2023/12/18 07:21:48;;;;;;;41.80;25.60;;;;;;;;;;107398;1251;60899;-80
2023/12/18 07:24:15;;;;;;;42.30;25.30;;;;;;;;;;106882;1253;59772;-79
2023/12/18 07:26:41;;;;;;;47.90;25.60;;;;;;;;;;106889;1252;61993;-81
2023/12/18 07:29:08;;;;;;;45.90;25.70;;;;;;;;;;107029;1253;61990;-79
2023/12/18 07:31:34;;;;;;;46.00;24.10;;;;;;;;;;107102;1251;59366;-80
2023/12/18 07:34:01;;;;;;;46.00;27.10;;;;;;;;;;106913;1253;59829;-80
2023/12/18 07:36:27;;;;;;;62.40;31.90;;;;;;;;;;106917;1251;60744;-81
2023/12/18 07:38:54;;;;;;;54.80;29.60;;;;;;;;;;106976;1253;59821;-80
2023/12/18 07:41:20;;;;;;;51.40;28.90;;;;;;;;;;107006;1251;59204;-80
2023/12/18 07:43:46;;;;;;;44.50;18.70;;;;;;;;;;106762;1251;60256;-79
2023/12/18 07:46:17;;;;;;;48.10;26.30;;;;;;;;;;106961;1251;59837;-79
2023/12/18 07:48:45;;;;;;;50.00;31.30;;;;;;;;;;107187;1251;60875;-80
2023/12/18 07:51:12;;;;;;;42.80;22.50;;;;;;;;;;106996;1252;61926;-80
2023/12/18 07:53:38;;;;;;;50.10;24.60;;;;;;;;;;107233;1254;60458;-79
2023/12/18 07:56:05;;;;;;;59.90;30.90;;;;;;;;;;107198;1251;61605;-80
2023/12/18 07:58:31;;;;;;;42.20;18.70;;;;;;;;;;107254;1254;59179;-81
2023/12/18 08:00:58;;;;;;;62.00;33.40;;;;;;;;;;107163;1253;60623;-79
2023/12/18 08:03:24;;;;;;;57.80;30.40;;;;;;;;;;107130;1250;60817;-80
2023/12/18 08:05:51;;;;;;;59.00;30.60;;;;;;;;;;107250;1253;59801;-80
2023/12/18 08:08:17;;;;;;;48.80;27.40;;;;;;;;;;107800;1251;62554;-81
2023/12/18 08:10:44;;;;;;;64.10;34.40;;;;;;;;;;107072;1253;59762;-80
2023/12/18 08:13:10;;;;;;;60.40;32.20;;;;;;;;;;107550;1250;59813;-80
2023/12/18 08:15:37;;;;;;;56.90;28.00;;;;;;;;;;107175;1251;59799;-80
2023/12/18 08:18:04;;;;;;;65.20;34.80;;;;;;;;;;107694;1250;59750;-80
2023/12/18 08:20:30;;;;;;;57.80;32.30;;;;;;;;;;108207;1250;62005;-80
2023/12/18 08:22:57;;;;;;;55.40;31.20;;;;;;;;;;108221;1254;60814;-80
2023/12/18 08:25:25;;;;;;;67.80;36.50;;;;;;;;;;108275;1250;62116;-79
2023/12/18 08:27:51;;;;;;;97.70;48.30;;;;;;;;;;107877;1255;59767;-80
2023/12/18 08:30:18;;;;;;;93.50;45.00;;;;;;;;;;107759;1251;60795;-80
2023/12/18 08:32:44;;;;;;;114.20;60.00;;;;;;;;;;107788;1250;59237;-80
2023/12/18 08:35:11;;;;;;;103.60;55.10;;;;;;;;;;109436;1252;59167;-80
2023/12/18 08:37:37;;;;;;;101.20;51.90;;;;;;;;;;109460;1253;59073;-80
2023/12/18 08:40:04;;;;;;;90.10;45.50;;;;;;;;;;109451;1252;59335;-80
2023/12/18 08:42:31;;;;;;;80.80;42.80;;;;;;;;;;109477;1253;59238;-80
2023/12/18 08:44:57;;;;;;;79.60;44.10;;;;;;;;;;109394;1254;63059;-80
2023/12/18 08:47:24;;;;;;;80.40;42.50;;;;;;;;;;109449;1251;59189;-80
2023/12/18 08:49:50;;;;;;;42.90;25.80;;;;;;;;;;109454;1251;59160;-80
2023/12/18 08:52:17;;;;;;;68.30;38.80;;;;;;;;;;109430;1251;58944;-81
2023/12/18 08:54:43;;;;;;;57.20;25.70;;;;;;;;;;108382;1253;60591;-80
2023/12/18 08:57:10;;;;;;;58.80;30.50;;;;;;;;;;107244;1252;59778;-80
2023/12/18 08:59:36;;;;;;;62.30;36.00;;;;;;;;;;107293;1251;60884;-81
2023/12/18 09:02:03;;;;;;;53.40;28.70;;;;;;;;;;107721;1253;59764;-81
2023/12/18 09:04:29;;;;;;;54.70;32.50;;;;;;;;;;107649;1251;59764;-81
2023/12/18 09:06:56;;;;;;;51.60;31.20;;;;;;;;;;107772;1250;60829;-81
2023/12/18 09:09:22;;;;;;;62.00;34.10;;;;;;;;;;107572;1251;59757;-81
2023/12/18 09:11:49;;;;;;;72.90;38.80;;;;;;;;;;107616;1251;59656;-82
2023/12/18 09:14:16;;;;;;;42.50;22.70;;;;;;;;;;107687;1251;60403;-81
2023/12/18 09:16:42;;;;;;;66.70;38.90;;;;;;;;;;107464;1251;59844;-82
2023/12/18 09:19:09;;;;;;;60.00;33.60;;;;;;;;;;107847;1251;60732;-81
2023/12/18 09:21:35;;;;;;;65.50;37.40;;;;;;;;;;107822;1251;59761;-81
2023/12/18 09:24:02;;;;;;;68.30;40.20;;;;;;;;;;107920;1251;59889;-81
2023/12/18 09:26:28;;;;;;;79.90;45.60;;;;;;;;;;107758;1251;59816;-81
2023/12/18 09:28:56;;;;;;;67.50;31.00;;;;;;;;;;107922;1251;59886;-81
2023/12/18 09:31:23;;;;;;;36.60;19.40;;;;;;;;;;107717;1251;59906;-81
2023/12/18 09:33:49;;;;;;;48.70;29.90;;;;;;;;;;107716;1251;61035;-81
2023/12/18 09:36:17;;;;;;;68.20;37.00;;;;;;;;;;107826;1251;59094;-81
2023/12/18 09:38:44;;;;;;;48.80;29.50;;;;;;;;;;107960;1251;61993;-81
2023/12/18 09:41:10;;;;;;;25.60;15.00;;;;;;;;;;107651;1250;59711;-81
2023/12/18 09:43:37;;;;;;;33.30;17.90;;;;;;;;;;107844;1251;60794;-82
2023/12/18 09:46:03;;;;;;;30.40;17.60;;;;;;;;;;107925;1251;59816;-83
2023/12/18 09:48:30;;;;;;;44.70;26.20;;;;;;;;;;108664;1251;59246;-82
2023/12/18 09:50:56;;;;;;;49.60;30.40;;;;;;;;;;107754;1251;59761;-81
2023/12/18 09:53:23;;;;;;;32.70;19.60;;;;;;;;;;107789;1251;59750;-81
2023/12/18 09:55:51;;;;;;;44.10;27.60;;;;;;;;;;107563;1251;60360;-81
2023/12/18 09:58:18;;;;;;;44.10;25.80;;;;;;;;;;107902;1251;62981;-82
2023/12/18 10:00:45;;;;;;;43.50;25.90;;;;;;;;;;107682;1251;63821;-82
2023/12/18 10:03:13;;;;;;;37.30;21.20;;;;;;;;;;107734;1251;61009;-81
2023/12/18 10:05:42;;;;;;;30.70;16.20;;;;;;;;;;107645;1251;59822;-81
2023/12/18 10:08:09;;;;;;;45.50;24.70;;;;;;;;;;107843;1254;59104;-81
2023/12/18 10:10:36;;;;;;;40.60;22.30;;;;;;;;;;107696;1253;62350;-81
2023/12/18 10:13:05;;;;;;;43.00;24.10;;;;;;;;;;107467;1251;59880;-82
2023/12/18 10:15:33;;;;;;;39.30;21.90;;;;;;;;;;107766;1251;61658;-83
2023/12/18 10:18:00;;;;;;;40.90;21.10;;;;;;;;;;107832;1251;59826;-83
2023/12/18 10:20:27;;;;;;;36.00;20.30;;;;;;;;;;108178;1255;60954;-84
2023/12/18 10:22:54;;;;;;;35.80;20.10;;;;;;;;;;108128;1253;60418;-82
2023/12/18 10:25:20;;;;;;;37.10;18.50;;;;;;;;;;108091;1255;59861;-82
2023/12/18 10:27:46;;;;;;;27.90;16.90;;;;;;;;;;108268;1253;60794;-82
2023/12/18 10:30:13;;;;;;;28.20;15.00;;;;;;;;;;108422;1251;60870;-81
2023/12/18 10:32:40;;;;;;;24.30;14.80;;;;;;;;;;108286;1251;59613;-81
2023/12/18 10:35:07;;;;;;;24.90;13.60;;;;;;;;;;108053;1251;62972;-81
2023/12/18 10:37:34;;;;;;;35.90;17.20;;;;;;;;;;107991;1253;59242;-82
2023/12/18 10:40:04;;;;;;;41.60;21.80;;;;;;;;;;109355;1251;59533;-82
2023/12/18 10:42:31;;;;;;;40.10;21.40;;;;;;;;;;107826;1253;60884;-82
2023/12/18 10:44:58;;;;;;;40.20;22.70;;;;;;;;;;108161;1251;59756;-82
2023/12/18 10:47:25;;;;;;;36.80;20.00;;;;;;;;;;107969;1253;61396;-81
2023/12/18 10:49:52;;;;;;;36.30;19.80;;;;;;;;;;108064;1254;59672;-81
2023/12/18 10:52:20;;;;;;;26.10;14.00;;;;;;;;;;107967;1251;62037;-79
2023/12/18 10:54:47;;;;;;;26.80;14.70;;;;;;;;;;107883;1251;59164;-79
2023/12/18 10:57:16;;;;;;;33.50;16.70;;;;;;;;;;107961;1252;60150;-80
2023/12/18 10:59:45;;;;;;;28.40;16.40;;;;;;;;;;107363;1251;61770;-79
2023/12/18 11:02:11;;;;;;;30.70;17.00;;;;;;;;;;107364;1251;59833;-79
2023/12/18 11:04:38;;;;;;;30.30;16.10;;;;;;;;;;108856;1253;60924;-82
2023/12/18 11:07:04;;;;;;;21.50;12.70;;;;;;;;;;109496;1251;59893;-82
2023/12/18 11:09:31;;;;;;;27.10;15.80;;;;;;;;;;109445;1251;58950;-82
2023/12/18 11:11:58;;;;;;;23.30;14.50;;;;;;;;;;109462;1251;61045;-82
2023/12/18 11:14:35;;;;;;;26.10;12.60;;;;;;;;;;109478;1250;58945;-82
2023/12/18 11:17:21;;;;;;;17.50;9.80;;;;;;;;;;109415;1253;59808;-82
2023/12/18 11:19:53;;;;;;;10.50;5.90;;;;;;;;;;109476;1250;59315;-79
2023/12/18 11:22:22;;;;;;;10.30;5.90;;;;;;;;;;109416;1251;60171;-80
2023/12/18 11:24:49;;;;;;;10.70;5.80;;;;;;;;;;109491;1251;61677;-80
2023/12/18 11:27:16;;;;;;;6.90;3.60;;;;;;;;;;109431;1251;58922;-79
2023/12/18 11:29:44;;;;;;;8.30;3.90;;;;;;;;;;109421;1253;59647;-80
2023/12/18 11:32:11;;;;;;;13.40;6.60;;;;;;;;;;109446;1251;58903;-81
2023/12/18 11:34:38;;;;;;;13.10;6.70;;;;;;;;;;109411;1255;59005;-79
2023/12/18 11:37:08;;;;;;;11.50;6.50;;;;;;;;;;109437;1253;61894;-80
2023/12/18 11:39:39;;;;;;;9.00;5.40;;;;;;;;;;109403;1251;59309;-80
2023/12/18 11:42:06;;;;;;;6.10;3.60;;;;;;;;;;109486;1254;59844;-80
2023/12/18 11:44:33;;;;;;;7.20;4.40;;;;;;;;;;109478;1251;59485;-80
2023/12/18 11:47:00;;;;;;;10.20;5.70;;;;;;;;;;109418;1251;59671;-80
2023/12/18 11:49:27;;;;;;;58.50;33.20;;;;;;;;;;109410;1251;63091;-79
2023/12/18 11:51:55;;;;;;;9.30;6.40;;;;;;;;;;109478;1251;59219;-80
2023/12/18 11:54:23;;;;;;;10.60;6.10;;;;;;;;;;109499;1253;59919;-80
2023/12/18 11:56:51;;;;;;;8.30;5.40;;;;;;;;;;109473;1251;59297;-80
2023/12/18 11:59:22;;;;;;;8.40;4.10;;;;;;;;;;109487;1251;59172;-80
2023/12/18 12:01:50;;;;;;;6.90;3.90;;;;;;;;;;109505;1251;62894;-80
2023/12/18 12:04:17;;;;;;;5.00;3.10;;;;;;;;;;109462;1251;59078;-80
2023/12/18 12:06:44;;;;;;;5.80;3.50;;;;;;;;;;109451;1253;58944;-80
2023/12/18 12:09:10;;;;;;;6.20;3.10;;;;;;;;;;109449;1253;59171;-80
2023/12/18 12:11:37;;;;;;;6.40;3.40;;;;;;;;;;109524;1251;58929;-80
2023/12/18 12:14:03;;;;;;;5.10;3.30;;;;;;;;;;109462;1251;61958;-79
2023/12/18 12:16:31;;;;;;;4.00;2.70;;;;;;;;;;109455;1251;58964;-80
2023/12/18 12:18:58;;;;;;;5.60;3.40;;;;;;;;;;109480;1253;58894;-80
2023/12/18 12:21:24;;;;;;;9.90;4.90;;;;;;;;;;109442;1251;59443;-80
2023/12/18 12:23:51;;;;;;;9.20;5.20;;;;;;;;;;109499;1251;59343;-81
2023/12/18 12:26:18;;;;;;;8.40;4.20;;;;;;;;;;109588;1251;59024;-80
2023/12/18 12:28:44;;;;;;;8.50;5.30;;;;;;;;;;109459;1251;59168;-80
2023/12/18 12:31:11;;;;;;;27.90;14.40;;;;;;;;;;109496;1251;60434;-80
2023/12/18 12:33:39;;;;;;;17.80;7.00;;;;;;;;;;109481;1251;59293;-80
2023/12/18 12:36:06;;;;;;;73.40;38.00;;;;;;;;;;109485;1251;59011;-80
2023/12/18 12:38:36;;;;;;;25.40;12.90;;;;;;;;;;109415;1251;63103;-80
2023/12/18 12:41:03;;;;;;;48.80;25.40;;;;;;;;;;109500;1250;59139;-80
2023/12/18 12:43:30;;;;;;;42.70;21.90;;;;;;;;;;109453;1253;58972;-80
2023/12/18 12:45:57;;;;;;;21.80;12.20;;;;;;;;;;109459;1251;59256;-80
2023/12/18 12:48:23;;;;;;;16.60;9.70;;;;;;;;;;109430;1254;61328;-80
2023/12/18 12:50:50;;;;;;;12.10;8.00;;;;;;;;;;109518;1253;61980;-80
2023/12/18 12:53:17;;;;;;;9.40;5.90;;;;;;;;;;109512;1251;59107;-80
2023/12/18 12:55:44;;;;;;;4.60;3.40;;;;;;;;;;109435;1251;59975;-80
2023/12/18 12:58:11;;;;;;;5.60;3.50;;;;;;;;;;109376;1253;58997;-80
2023/12/18 13:00:37;;;;;;;6.70;3.70;;;;;;;;;;109547;1251;58867;-81
2023/12/18 13:03:04;;;;;;;5.50;3.40;;;;;;;;;;109553;1251;62545;-80
2023/12/18 13:05:31;;;;;;;81.60;48.20;;;;;;;;;;109561;1251;58998;-80
2023/12/18 13:07:59;;;;;;;12.80;8.60;;;;;;;;;;109487;1251;58891;-80
2023/12/18 13:10:28;;;;;;;5.40;3.50;;;;;;;;;;109479;1255;60115;-80
2023/12/18 13:12:56;;;;;;;5.10;2.90;;;;;;;;;;109521;1251;58971;-80
2023/12/18 13:15:22;;;;;;;5.20;3.10;;;;;;;;;;109522;1254;62854;-80
2023/12/18 13:17:49;;;;;;;4.80;3.20;;;;;;;;;;109437;1256;59300;-80
2023/12/18 13:20:16;;;;;;;5.70;3.30;;;;;;;;;;109448;1251;59139;-80
2023/12/18 13:22:42;;;;;;;5.50;3.50;;;;;;;;;;109484;1251;59177;-80
2023/12/18 13:25:08;;;;;;;6.90;3.50;;;;;;;;;;109535;1251;58906;-80
2023/12/18 13:27:35;;;;;;;8.50;3.80;;;;;;;;;;109482;1251;61791;-80
2023/12/18 13:30:02;;;;;;;9.00;4.90;;;;;;;;;;109454;1251;59032;-80
2023/12/18 13:32:28;;;;;;;7.40;4.00;;;;;;;;;;109499;1254;60550;-81
2023/12/18 13:34:55;;;;;;;24.70;13.90;;;;;;;;;;109434;1252;59256;-80
2023/12/18 13:37:22;;;;;;;9.80;6.30;;;;;;;;;;109478;1250;58903;-81
2023/12/18 13:39:48;;;;;;;12.10;4.80;;;;;;;;;;109472;1255;60528;-80
2023/12/18 13:42:15;;;;;;;8.40;6.20;;;;;;;;;;109453;1251;59524;-80
2023/12/18 13:44:42;;;;;;;57.90;27.00;;;;;;;;;;109491;1251;59199;-81
2023/12/18 13:47:08;;;;;;;288.40;123.70;;;;;;;;;;109504;1250;59188;-80
2023/12/18 13:49:36;;;;;;;230.60;103.00;;;;;;;;;;109483;1250;58922;-80
2023/12/18 13:52:02;;;;;;;81.80;36.10;;;;;;;;;;109528;1254;60381;-80
2023/12/18 13:54:30;;;;;;;30.30;15.30;;;;;;;;;;109498;1251;59323;-81
2023/12/18 13:56:56;;;;;;;310.20;136.90;;;;;;;;;;108157;1254;59512;-80
2023/12/18 13:59:23;;;;;;;177.40;83.80;;;;;;;;;;109146;1254;58999;-80
2023/12/18 14:01:50;;;;;;;107.80;49.10;;;;;;;;;;109465;1251;59120;-80
2023/12/18 14:04:16;;;;;;;173.70;77.70;;;;;;;;;;109527;1251;59193;-80